Time;durP1;ratioP1;P1;durP2;ratioP2;P2;SDS_P1;SDS_P2;PMS_P1;PMS_P2;Temp;Humidity;BMP_temperature;BMP_pressure;BME280_temperature;BME280_humidity;BME280_pressure;Samples;Min_cycle;Max_cycle;Signal;HPM_P1;HPM_P2
2022/01/08 00:01:21;;;;;;;;;;;21.00;41.70;;;;;;6300262;28;19967;-42
2022/01/08 00:04:23;;;;;;;;;;;21.00;41.70;;;;;;6292938;28;20250;-41
2022/01/08 00:07:25;;;;;;;;;;;20.80;41.70;;;;;;6303948;28;20575;-44
2022/01/08 00:10:26;;;;;;;;;;;21.60;42.00;;;;;;6290256;28;21162;-43
2022/01/08 00:13:27;;;;;;;;;;;21.30;41.90;;;;;;6287876;28;19931;-42
2022/01/08 00:16:33;;;;;;;;;;;21.30;41.90;;;;;;6305123;28;20038;-41
2022/01/08 00:19:35;;;;;;;;;;;20.90;41.80;;;;;;6312470;28;19924;-41
2022/01/08 00:22:37;;;;;;;;;;;21.40;41.90;;;;;;6307196;28;19931;-43
2022/01/08 00:25:39;;;;;;;;;;;21.30;41.90;;;;;;6311124;28;20008;-43
2022/01/08 00:28:41;;;;;;;;;;;20.80;41.70;;;;;;6310753;28;19923;-41
2022/01/08 00:31:43;;;;;;;;;;;21.60;42.00;;;;;;6310958;28;21008;-43
2022/01/08 00:34:48;;;;;;;;;;;20.90;41.70;;;;;;6313916;28;19924;-42
2022/01/08 00:37:51;;;;;;;;;;;21.60;42.20;;;;;;6305718;28;19963;-45
2022/01/08 00:40:52;;;;;;;;;;;20.90;42.40;;;;;;6314022;28;19934;-42
2022/01/08 00:43:54;;;;;;;;;;;20.80;41.80;;;;;;6311831;28;20054;-44
2022/01/08 00:46:55;;;;;;;;;;;20.90;41.80;;;;;;6312055;28;19920;-42
2022/01/08 00:49:58;;;;;;;;;;;21.20;42.10;;;;;;6310203;28;20014;-40
2022/01/08 00:52:59;;;;;;;;;;;21.60;42.30;;;;;;6318754;28;20143;-43
2022/01/08 00:56:01;;;;;;;;;;;21.10;42.00;;;;;;6289500;28;19951;-46
2022/01/08 00:59:03;;;;;;;;;;;20.90;41.90;;;;;;6308495;28;19965;-42
2022/01/08 01:02:05;;;;;;;;;;;21.10;41.90;;;;;;6306837;28;20101;-45
2022/01/08 01:05:09;;;;;;;;;;;21.00;41.90;;;;;;6303762;28;19932;-41
2022/01/08 01:08:11;;;;;;;;;;;20.80;41.80;;;;;;6312268;28;19998;-41
2022/01/08 01:11:12;;;;;;;;;;;20.80;41.90;;;;;;6298162;28;19935;-42
2022/01/08 01:14:16;;;;;;;;;;;21.20;42.10;;;;;;6302623;28;20917;-43
2022/01/08 01:17:18;;;;;;;;;;;21.40;41.60;;;;;;6307088;28;19946;-40
2022/01/08 01:20:21;;;;;;;;;;;21.00;42.10;;;;;;6305710;28;20084;-44
2022/01/08 01:23:29;;;;;;;;;;;21.40;42.20;;;;;;6307987;28;19933;-43
2022/01/08 01:26:34;;;;;;;;;;;21.10;42.00;;;;;;6292770;28;19924;-41
2022/01/08 01:29:45;;;;;;;;;;;20.90;42.60;;;;;;6307149;28;20765;-45
2022/01/08 01:48:57;;;;;;;;;;;20.70;41.90;;;;;;6313951;28;19934;-42
2022/01/08 01:52:00;;;;;;;;;;;21.00;42.20;;;;;;6313039;28;19931;-42
2022/01/08 01:55:01;;;;;;;;;;;21.20;42.20;;;;;;6293587;28;20014;-42
2022/01/08 01:58:05;;;;;;;;;;;20.90;42.10;;;;;;6295834;28;19928;-45
2022/01/08 02:01:07;;;;;;;;;;;20.90;42.10;;;;;;6313416;28;20327;-41
2022/01/08 02:04:11;;;;;;;;;;;21.10;42.20;;;;;;6314448;28;19949;-40
2022/01/08 02:07:13;;;;;;;;;;;20.80;41.90;;;;;;6312483;28;20770;-41
2022/01/08 02:10:14;;;;;;;;;;;21.20;42.20;;;;;;6316046;28;20699;-42
2022/01/08 02:13:20;;;;;;;;;;;20.60;42.00;;;;;;6316705;28;20006;-44
2022/01/08 02:16:21;;;;;;;;;;;21.00;42.10;;;;;;6300400;28;19935;-46
2022/01/08 02:19:23;;;;;;;;;;;20.90;42.10;;;;;;6311551;28;19927;-40
2022/01/08 02:22:25;;;;;;;;;;;20.70;42.10;;;;;;6315805;28;20653;-43
2022/01/08 02:25:26;;;;;;;;;;;21.10;42.10;;;;;;6312367;28;19923;-44
2022/01/08 02:28:27;;;;;;;;;;;21.10;42.30;;;;;;6319669;28;20620;-41
2022/01/08 02:31:29;;;;;;;;;;;20.80;42.10;;;;;;6316758;28;19981;-42
2022/01/08 02:34:30;;;;;;;;;;;21.10;42.30;;;;;;6318770;28;19931;-46
2022/01/08 02:37:34;;;;;;;;;;;21.00;42.20;;;;;;6310740;28;19923;-42
2022/01/08 02:40:37;;;;;;;;;;;20.70;42.10;;;;;;6312386;28;20463;-44
2022/01/08 02:43:44;;;;;;;;;;;20.70;42.10;;;;;;6312060;28;19924;-40
2022/01/08 02:46:46;;;;;;;;;;;21.00;42.20;;;;;;6281709;28;19924;-40
2022/01/08 02:49:52;;;;;;;;;;;20.70;42.20;;;;;;6311410;28;19969;-41
2022/01/08 02:52:54;;;;;;;;;;;20.70;42.10;;;;;;6308481;28;19998;-43
2022/01/08 02:55:56;;;;;;;;;;;21.40;42.40;;;;;;6305889;28;20708;-41
2022/01/08 02:58:57;;;;;;;;;;;21.20;42.50;;;;;;6299327;28;20010;-41
2022/01/08 03:01:58;;;;;;;;;;;20.70;42.60;;;;;;6309413;28;20711;-40
2022/01/08 03:05:00;;;;;;;;;;;20.70;42.30;;;;;;6307464;28;20042;-41
2022/01/08 03:08:02;;;;;;;;;;;21.00;42.30;;;;;;6279470;28;19923;-40
2022/01/08 03:11:03;;;;;;;;;;;21.10;42.40;;;;;;6311536;28;20557;-40
2022/01/08 03:14:05;;;;;;;;;;;20.90;42.40;;;;;;6305638;28;20513;-42
2022/01/08 03:17:07;;;;;;;;;;;21.00;42.30;;;;;;6301776;28;20026;-40
2022/01/08 03:20:12;;;;;;;;;;;21.20;42.40;;;;;;6308799;28;20046;-40
2022/01/08 03:23:18;;;;;;;;;;;21.10;42.40;;;;;;6297152;28;19924;-41
2022/01/08 03:26:25;;;;;;;;;;;21.00;41.70;;;;;;6313410;28;19923;-41
2022/01/08 03:29:26;;;;;;;;;;;21.10;42.40;;;;;;6316084;28;20057;-41
2022/01/08 03:32:28;;;;;;;;;;;21.00;42.40;;;;;;6297440;28;19927;-41
2022/01/08 03:35:29;;;;;;;;;;;21.20;42.70;;;;;;6316776;28;19923;-41
2022/01/08 03:38:31;;;;;;;;;;;21.00;43.10;;;;;;6295644;28;20306;-42
2022/01/08 03:41:33;;;;;;;;;;;21.10;42.50;;;;;;6308871;28;19931;-42
2022/01/08 03:44:35;;;;;;;;;;;21.50;42.70;;;;;;6304013;28;20550;-41
2022/01/08 03:50:53;;;;;;;;;;;20.80;42.30;;;;;;6315817;28;19923;-40
2022/01/08 03:53:55;;;;;;;;;;;20.90;42.40;;;;;;6296471;28;19946;-41
2022/01/08 03:56:57;;;;;;;;;;;20.90;42.40;;;;;;6316658;28;20004;-42
2022/01/08 03:59:58;;;;;;;;;;;20.90;42.40;;;;;;6314645;28;20481;-42
2022/01/08 04:02:59;;;;;;;;;;;20.60;42.30;;;;;;6311240;28;20533;-40
2022/01/08 04:06:01;;;;;;;;;;;20.70;42.40;;;;;;6311037;28;20017;-44
2022/01/08 04:09:03;;;;;;;;;;;20.60;42.40;;;;;;6303563;28;20465;-42
2022/01/08 04:12:08;;;;;;;;;;;20.70;42.40;;;;;;6297535;28;20337;-41
2022/01/08 04:18:19;;;;;;;;;;;21.00;42.40;;;;;;6300780;28;20026;-41
2022/01/08 04:24:37;;;;;;;;;;;21.20;42.60;;;;;;6301438;28;20422;-41
2022/01/08 04:27:39;;;;;;;;;;;21.20;42.60;;;;;;6310714;28;20263;-42
2022/01/08 04:30:41;;;;;;;;;;;20.60;42.40;;;;;;6317180;28;20054;-42
2022/01/08 04:33:42;;;;;;;;;;;20.80;42.40;;;;;;6297581;28;20038;-42
2022/01/08 04:36:43;;;;;;;;;;;21.10;42.70;;;;;;6308237;28;20345;-39
2022/01/08 04:39:46;;;;;;;;;;;20.50;42.50;;;;;;6311584;28;20654;-43
2022/01/08 04:42:47;;;;;;;;;;;20.70;42.50;;;;;;6315325;28;20010;-41
2022/01/08 04:45:49;;;;;;;;;;;20.70;42.50;;;;;;6313412;28;19923;-40
2022/01/08 04:48:51;;;;;;;;;;;20.60;42.50;;;;;;6311835;28;19924;-44
2022/01/08 04:51:53;;;;;;;;;;;20.90;42.70;;;;;;6310005;28;20450;-40
2022/01/08 04:54:55;;;;;;;;;;;20.90;42.60;;;;;;6312863;28;19977;-43
2022/01/08 04:57:57;;;;;;;;;;;20.90;42.60;;;;;;6309447;28;19934;-40
2022/01/08 05:00:58;;;;;;;;;;;20.50;42.40;;;;;;6310450;28;20040;-45
2022/01/08 05:04:00;;;;;;;;;;;20.60;42.50;;;;;;6311133;28;19923;-46
2022/01/08 05:07:02;;;;;;;;;;;20.60;42.50;;;;;;6315504;28;19985;-43
2022/01/08 05:10:04;;;;;;;;;;;20.60;42.60;;;;;;6309060;28;19963;-48
2022/01/08 05:13:06;;;;;;;;;;;20.80;42.70;;;;;;6315901;28;20767;-42
2022/01/08 05:16:09;;;;;;;;;;;20.70;42.70;;;;;;6297713;28;19971;-43
2022/01/08 05:19:11;;;;;;;;;;;20.90;43.30;;;;;;6307721;28;20042;-44
2022/01/08 05:22:22;;;;;;;;;;;20.60;42.60;;;;;;6309517;28;19928;-40
2022/01/08 05:25:24;;;;;;;;;;;20.60;42.60;;;;;;6312514;28;20138;-44
2022/01/08 05:28:25;;;;;;;;;;;21.00;42.70;;;;;;6309352;28;19927;-41
2022/01/08 05:31:26;;;;;;;;;;;20.60;42.70;;;;;;6307609;28;20710;-41
2022/01/08 05:34:28;;;;;;;;;;;20.60;42.70;;;;;;6317452;28;20014;-42
2022/01/08 05:37:29;;;;;;;;;;;20.80;42.80;;;;;;6317926;28;19923;-43
2022/01/08 05:40:31;;;;;;;;;;;20.90;42.80;;;;;;6312915;28;20060;-46
2022/01/08 05:43:33;;;;;;;;;;;20.50;42.50;;;;;;6316064;28;20760;-43
2022/01/08 05:46:35;;;;;;;;;;;20.90;42.70;;;;;;6296837;28;19935;-42
2022/01/08 05:49:36;;;;;;;;;;;20.90;42.70;;;;;;6304369;28;20018;-41
2022/01/08 05:52:37;;;;;;;;;;;21.00;42.90;;;;;;6304185;28;19963;-42
2022/01/08 05:55:40;;;;;;;;;;;21.00;42.80;;;;;;6305012;28;19945;-41
2022/01/08 05:58:41;;;;;;;;;;;20.70;42.70;;;;;;6305567;28;20427;-41
2022/01/08 06:01:42;;;;;;;;;;;21.00;43.00;;;;;;6308000;28;20054;-41
2022/01/08 06:04:43;;;;;;;;;;;20.80;42.80;;;;;;6289555;28;19924;-41
2022/01/08 06:07:45;;;;;;;;;;;20.70;42.80;;;;;;6303924;28;20292;-41
2022/01/08 06:10:47;;;;;;;;;;;20.50;42.70;;;;;;6299623;28;20690;-41
2022/01/08 06:13:49;;;;;;;;;;;20.60;42.70;;;;;;6292345;28;20737;-42
2022/01/08 06:16:50;;;;;;;;;;;20.60;42.70;;;;;;6294813;28;20236;-41
2022/01/08 06:19:51;;;;;;;;;;;21.00;42.90;;;;;;6307188;28;20271;-41
2022/01/08 06:22:53;;;;;;;;;;;20.50;42.40;;;;;;6312334;28;20653;-43
2022/01/08 06:25:55;;;;;;;;;;;20.70;42.80;;;;;;6305059;28;19924;-46
2022/01/08 06:28:56;;;;;;;;;;;20.80;42.80;;;;;;6319431;28;20403;-45
2022/01/08 06:31:57;;;;;;;;;;;20.60;42.70;;;;;;6314771;28;19928;-43
2022/01/08 06:35:00;;;;;;;;;;;20.60;42.80;;;;;;6311426;28;19927;-41
2022/01/08 06:38:02;;;;;;;;;;;20.80;42.90;;;;;;6309253;28;20042;-45
2022/01/08 06:41:05;;;;;;;;;;;20.40;42.70;;;;;;6316428;28;19923;-43
2022/01/08 06:44:06;;;;;;;;;;;20.50;42.70;;;;;;6328406;27;20042;-42
2022/01/08 06:47:08;;;;;;;;;;;20.60;42.80;;;;;;6321660;27;20146;-41
2022/01/08 06:50:09;;;;;;;;;;;21.10;43.00;;;;;;6310223;27;20446;-43
2022/01/08 06:53:10;;;;;;;;;;;20.60;42.80;;;;;;6324493;27;20041;-42
2022/01/08 06:56:13;;;;;;;;;;;20.70;42.70;;;;;;6279051;27;19934;-40
2022/01/08 06:59:14;;;;;;;;;;;21.00;42.90;;;;;;6307734;27;20333;-41
2022/01/08 07:02:15;;;;;;;;;;;20.70;42.80;;;;;;6299472;27;19974;-43
2022/01/08 07:05:17;;;;;;;;;;;20.50;42.80;;;;;;6310691;27;19920;-41
2022/01/08 07:08:18;;;;;;;;;;;20.50;42.80;;;;;;6312117;27;19990;-41
2022/01/08 07:11:20;;;;;;;;;;;20.60;42.80;;;;;;6295032;27;20294;-40
2022/01/08 07:14:21;;;;;;;;;;;20.50;42.80;;;;;;6298587;27;20375;-40
2022/01/08 07:17:23;;;;;;;;;;;20.40;42.70;;;;;;6290744;27;20202;-39
2022/01/08 07:20:24;;;;;;;;;;;20.90;42.90;;;;;;6293861;27;20366;-40
2022/01/08 07:23:25;;;;;;;;;;;20.50;42.70;;;;;;6274908;27;20421;-42
2022/01/08 07:26:27;;;;;;;;;;;20.40;42.70;;;;;;6294429;27;20285;-40
2022/01/08 07:29:29;;;;;;;;;;;20.90;42.90;;;;;;6292982;27;19927;-40
2022/01/08 07:32:30;;;;;;;;;;;20.50;42.70;;;;;;6284549;27;20047;-40
2022/01/08 07:35:38;;;;;;;;;;;20.80;42.90;;;;;;6288110;27;20697;-40
2022/01/08 07:38:39;;;;;;;;;;;20.80;42.80;;;;;;6290664;27;19930;-42
2022/01/08 07:41:41;;;;;;;;;;;20.60;42.90;;;;;;6300347;27;19919;-44
2022/01/08 07:44:43;;;;;;;;;;;20.50;42.70;;;;;;6292998;27;20270;-43
2022/01/08 07:47:45;;;;;;;;;;;20.60;42.90;;;;;;6301113;27;20247;-41
2022/01/08 07:50:47;;;;;;;;;;;20.70;42.90;;;;;;6290201;27;20262;-41
2022/01/08 07:53:50;;;;;;;;;;;20.50;42.90;;;;;;6287836;27;20135;-41
2022/01/08 07:56:52;;;;;;;;;;;20.90;42.90;;;;;;6289830;28;20768;-40
2022/01/08 07:59:53;;;;;;;;;;;20.90;43.00;;;;;;6295916;28;20801;-41
2022/01/08 08:02:56;;;;;;;;;;;20.40;42.80;;;;;;6294378;28;20594;-42
2022/01/08 08:05:57;;;;;;;;;;;20.50;43.00;;;;;;6296739;28;20776;-41
2022/01/08 08:08:58;;;;;;;;;;;20.70;42.90;;;;;;6306755;28;19970;-42
2022/01/08 08:12:01;;;;;;;;;;;20.70;43.00;;;;;;6301205;28;20042;-41
2022/01/08 08:15:02;;;;;;;;;;;20.50;42.80;;;;;;6299692;28;20178;-43
2022/01/08 08:18:05;;;;;;;;;;;20.70;42.90;;;;;;6300641;28;20001;-45
2022/01/08 08:21:06;;;;;;;;;;;20.50;42.80;;;;;;6302530;28;19927;-42
2022/01/08 08:24:07;;;;;;;;;;;20.50;42.80;;;;;;6302443;28;19969;-44
2022/01/08 08:27:11;;;;;;;;;;;20.40;42.80;;;;;;6298086;28;19934;-42
2022/01/08 08:30:13;;;;;;;;;;;21.00;42.30;;;;;;6284396;28;20788;-42
2022/01/08 08:33:14;;;;;;;;;;;20.60;42.90;;;;;;6287467;28;20027;-43
2022/01/08 08:36:15;;;;;;;;;;;20.60;43.00;;;;;;6301753;28;20721;-40
2022/01/08 08:39:17;;;;;;;;;;;20.50;42.90;;;;;;6292983;28;20229;-39
2022/01/08 08:42:19;;;;;;;;;;;20.50;42.90;;;;;;6285396;28;20362;-40
2022/01/08 08:45:20;;;;;;;;;;;20.80;43.10;;;;;;6291330;28;20263;-40
2022/01/08 08:48:22;;;;;;;;;;;20.90;43.10;;;;;;6282736;28;19928;-40
2022/01/08 08:51:23;;;;;;;;;;;20.90;43.10;;;;;;6289909;28;19920;-45
2022/01/08 08:54:25;;;;;;;;;;;20.60;43.00;;;;;;6298438;28;19927;-42
2022/01/08 08:57:28;;;;;;;;;;;20.40;42.80;;;;;;6296269;28;20188;-40
2022/01/08 09:00:29;;;;;;;;;;;21.20;43.30;;;;;;6301274;28;19923;-43
2022/01/08 09:03:30;;;;;;;;;;;20.60;43.00;;;;;;6304488;28;20091;-40
2022/01/08 09:06:32;;;;;;;;;;;20.50;42.90;;;;;;6302520;28;19923;-40
2022/01/08 09:09:33;;;;;;;;;;;20.90;43.20;;;;;;6307528;28;19941;-43
2022/01/08 09:12:36;;;;;;;;;;;20.40;42.80;;;;;;6293630;28;19955;-41
2022/01/08 09:15:41;;;;;;;;;;;20.70;43.00;;;;;;6283963;28;20158;-41
2022/01/08 09:18:42;;;;;;;;;;;20.60;42.90;;;;;;6285830;28;20762;-41
2022/01/08 09:21:44;;;;;;;;;;;21.00;43.00;;;;;;6288493;28;19923;-39
2022/01/08 09:24:46;;;;;;;;;;;21.00;42.80;;;;;;6287918;28;20468;-41
2022/01/08 09:27:49;;;;;;;;;;;20.90;42.90;;;;;;6297100;28;19940;-41
2022/01/08 09:30:50;;;;;;;;;;;21.10;42.80;;;;;;6282402;28;19924;-41
2022/01/08 09:33:51;;;;;;;;;;;20.70;42.70;;;;;;6281832;28;19928;-42
2022/01/08 09:36:53;;;;;;;;;;;20.90;42.70;;;;;;6297652;28;20769;-44
2022/01/08 09:39:54;;;;;;;;;;;21.10;42.70;;;;;;6297497;28;19995;-41
2022/01/08 09:42:57;;;;;;;;;;;20.80;42.50;;;;;;6297177;28;19962;-42
2022/01/08 09:45:59;;;;;;;;;;;20.70;42.30;;;;;;6294871;28;20366;-40
2022/01/08 09:49:01;;;;;;;;;;;21.10;42.50;;;;;;6287690;28;19927;-40
2022/01/08 09:52:03;;;;;;;;;;;20.80;42.30;;;;;;6284606;28;20004;-40
2022/01/08 09:55:05;;;;;;;;;;;20.90;42.30;;;;;;6283146;28;19931;-42
2022/01/08 09:58:07;;;;;;;;;;;21.10;42.30;;;;;;6295814;28;20169;-40
2022/01/08 10:01:21;;;;;;;;;;;21.70;42.60;;;;;;6285828;28;19928;-40
2022/01/08 10:04:23;;;;;;;;;;;21.00;42.20;;;;;;6283853;28;19955;-41
2022/01/08 10:07:26;;;;;;;;;;;20.80;42.10;;;;;;6278678;28;20113;-40
2022/01/08 10:10:28;;;;;;;;;;;21.40;42.30;;;;;;6291159;28;20352;-40
2022/01/08 10:13:32;;;;;;;;;;;21.00;42.10;;;;;;6290090;28;19927;-41
2022/01/08 10:19:50;;;;;;;;;;;21.50;42.30;;;;;;6276026;28;20214;-42
2022/01/08 10:22:56;;;;;;;;;;;21.40;42.20;;;;;;6287061;28;20466;-40
2022/01/08 10:26:00;;;;;;;;;;;21.20;42.00;;;;;;6273064;28;20197;-41
2022/01/08 10:29:03;;;;;;;;;;;21.60;42.30;;;;;;6287684;28;20046;-42
2022/01/08 10:32:06;;;;;;;;;;;21.50;42.20;;;;;;6286374;28;20092;-41
2022/01/08 10:35:07;;;;;;;;;;;21.60;42.20;;;;;;6272553;28;19927;-41
2022/01/08 10:38:09;;;;;;;;;;;21.20;42.00;;;;;;6278152;28;20922;-42
2022/01/08 10:41:13;;;;;;;;;;;21.30;42.10;;;;;;6298871;28;19926;-42
2022/01/08 10:44:16;;;;;;;;;;;21.40;42.00;;;;;;6300994;28;19927;-40
2022/01/08 10:47:18;;;;;;;;;;;21.30;42.00;;;;;;6302411;28;19935;-42
2022/01/08 10:50:23;;;;;;;;;;;21.80;42.20;;;;;;6278558;28;19970;-41
2022/01/08 10:53:46;;;;;;;;;;;21.80;42.10;;;;;;6302508;28;20741;-46
2022/01/08 10:56:49;;;;;;;;;;;21.40;41.90;;;;;;6275896;28;19927;-43
2022/01/08 10:59:57;;;;;;;;;;;21.50;42.00;;;;;;6287838;28;20563;-40
2022/01/08 11:02:59;;;;;;;;;;;22.00;42.20;;;;;;6283330;28;19931;-41
2022/01/08 11:06:00;;;;;;;;;;;21.60;42.10;;;;;;6268190;28;20410;-40
2022/01/08 11:09:04;;;;;;;;;;;21.60;42.00;;;;;;6284624;28;20634;-40
2022/01/08 11:12:07;;;;;;;;;;;21.80;42.10;;;;;;6266169;28;20192;-41
2022/01/08 11:15:25;;;;;;;;;;;21.50;41.90;;;;;;6286590;28;20075;-39
2022/01/08 11:18:27;;;;;;;;;;;21.70;41.90;;;;;;6278877;28;19927;-41
2022/01/08 11:21:30;;;;;;;;;;;21.70;42.00;;;;;;6276537;28;20040;-41
2022/01/08 11:24:32;;;;;;;;;;;21.80;42.00;;;;;;6290925;28;19927;-40
2022/01/08 11:27:37;;;;;;;;;;;21.70;42.00;;;;;;6287082;28;19971;-40
2022/01/08 11:30:41;;;;;;;;;;;21.80;41.90;;;;;;6267719;28;19966;-41
2022/01/08 11:33:47;;;;;;;;;;;22.00;42.10;;;;;;6285401;28;19970;-41
2022/01/08 11:36:50;;;;;;;;;;;21.60;41.80;;;;;;6281661;28;20373;-40
2022/01/08 11:39:51;;;;;;;;;;;21.60;41.80;;;;;;6290990;28;19966;-40
2022/01/08 11:42:53;;;;;;;;;;;21.70;41.80;;;;;;6289229;28;20244;-43
2022/01/08 11:45:56;;;;;;;;;;;21.70;41.90;;;;;;6295238;28;19950;-41
2022/01/08 11:48:58;;;;;;;;;;;22.00;42.00;;;;;;6293411;28;20038;-42
2022/01/08 11:52:12;;;;;;;;;;;21.60;41.80;;;;;;6266792;28;19927;-43
2022/01/08 11:55:33;;;;;;;;;;;22.20;42.00;;;;;;6295809;28;19923;-40
2022/01/08 11:58:35;;;;;;;;;;;21.70;41.80;;;;;;6261154;28;20004;-44
2022/01/08 12:01:37;;;;;;;;;;;22.00;41.90;;;;;;6264270;28;20231;-41
2022/01/08 12:04:40;;;;;;;;;;;22.10;42.00;;;;;;6281835;28;19978;-42
2022/01/08 12:07:47;;;;;;;;;;;21.70;41.70;;;;;;6267268;28;20647;-40
2022/01/08 12:10:55;;;;;;;;;;;21.80;41.80;;;;;;6273326;28;19977;-40
2022/01/08 12:14:07;;;;;;;;;;;22.20;42.00;;;;;;6286765;28;20074;-42
2022/01/08 12:17:13;;;;;;;;;;;21.80;41.70;;;;;;6291727;28;20227;-42
2022/01/08 12:20:35;;;;;;;;;;;22.30;42.00;;;;;;6285140;28;19927;-41
2022/01/08 12:23:37;;;;;;;;;;;22.00;41.80;;;;;;6269080;28;20121;-41
2022/01/08 12:26:38;;;;;;;;;;;22.00;41.80;;;;;;6291438;28;20246;-41
2022/01/08 12:29:40;;;;;;;;;;;22.20;41.90;;;;;;6292280;28;20063;-44
2022/01/08 12:32:50;;;;;;;;;;;22.30;42.00;;;;;;6290018;28;19931;-41
2022/01/08 12:35:57;;;;;;;;;;;22.20;41.90;;;;;;6256235;28;20458;-41
2022/01/08 12:39:00;;;;;;;;;;;21.90;41.80;;;;;;6270825;28;20608;-40
2022/01/08 12:42:12;;;;;;;;;;;22.00;41.80;;;;;;6269264;28;20041;-41
2022/01/08 12:45:15;;;;;;;;;;;22.20;41.90;;;;;;6292251;28;20693;-40
2022/01/08 12:48:18;;;;;;;;;;;22.20;41.90;;;;;;6290075;28;20204;-41
2022/01/08 12:51:24;;;;;;;;;;;22.30;41.90;;;;;;6288606;28;20633;-41
2022/01/08 12:54:26;;;;;;;;;;;22.10;41.90;;;;;;6288461;28;20131;-42
2022/01/08 12:57:28;;;;;;;;;;;22.20;42.00;;;;;;6284589;28;19970;-42
2022/01/08 13:00:30;;;;;;;;;;;22.30;41.90;;;;;;6288085;28;20411;-41
2022/01/08 13:03:33;;;;;;;;;;;22.10;42.00;;;;;;6284847;28;20398;-40
2022/01/08 13:06:36;;;;;;;;;;;22.40;42.60;;;;;;6286959;28;20197;-42
2022/01/08 13:09:37;;;;;;;;;;;22.50;42.10;;;;;;6286101;28;20521;-40
2022/01/08 13:12:39;;;;;;;;;;;22.20;41.90;;;;;;6289558;28;20235;-41
2022/01/08 13:15:41;;;;;;;;;;;22.40;42.00;;;;;;6286687;28;20030;-43
2022/01/08 13:18:46;;;;;;;;;;;22.10;41.90;;;;;;6285289;28;20200;-41
2022/01/08 13:21:50;;;;;;;;;;;22.50;42.10;;;;;;6287023;28;20024;-40
2022/01/08 13:24:52;;;;;;;;;;;22.30;42.00;;;;;;6285106;28;20354;-41
2022/01/08 13:27:54;;;;;;;;;;;22.50;42.10;;;;;;6292844;28;19962;-42
2022/01/08 13:30:56;;;;;;;;;;;22.20;41.90;;;;;;6285707;28;20051;-40
2022/01/08 13:33:58;;;;;;;;;;;22.20;41.90;;;;;;6291420;28;20147;-42
2022/01/08 13:37:04;;;;;;;;;;;22.40;42.00;;;;;;6298612;28;20058;-41
2022/01/08 13:40:06;;;;;;;;;;;22.30;41.90;;;;;;6289122;28;20010;-40
2022/01/08 13:43:07;;;;;;;;;;;22.00;41.80;;;;;;6294552;28;19963;-41
2022/01/08 13:46:10;;;;;;;;;;;22.20;42.00;;;;;;6287207;28;19927;-42
2022/01/08 13:49:13;;;;;;;;;;;22.30;41.90;;;;;;6289354;28;20321;-41
2022/01/08 13:52:19;;;;;;;;;;;22.20;41.90;;;;;;6279976;28;19930;-39
2022/01/08 13:55:22;;;;;;;;;;;22.20;41.90;;;;;;6286009;28;20594;-41
2022/01/08 13:58:25;;;;;;;;;;;22.20;41.90;;;;;;6275067;28;20165;-41
2022/01/08 14:01:36;;;;;;;;;;;22.10;41.90;;;;;;6265162;28;19927;-41
2022/01/08 14:04:39;;;;;;;;;;;22.40;42.10;;;;;;6279317;28;20210;-42
2022/01/08 14:07:41;;;;;;;;;;;22.50;42.10;;;;;;6287259;28;20406;-40
2022/01/08 14:10:43;;;;;;;;;;;22.40;42.10;;;;;;6282191;28;20397;-43
2022/01/08 14:13:46;;;;;;;;;;;22.10;41.90;;;;;;6285674;28;20734;-42
2022/01/08 14:16:47;;;;;;;;;;;22.20;42.00;;;;;;6283667;28;20038;-41
2022/01/08 14:19:56;;;;;;;;;;;22.40;42.00;;;;;;6281391;28;20889;-43
2022/01/08 14:23:08;;;;;;;;;;;22.40;42.00;;;;;;6284886;28;19999;-42
2022/01/08 14:26:13;;;;;;;;;;;22.50;42.10;;;;;;6286542;28;20238;-40
2022/01/08 14:29:14;;;;;;;;;;;22.30;42.00;;;;;;6282356;28;20286;-42
2022/01/08 14:32:17;;;;;;;;;;;22.30;42.10;;;;;;6286540;28;20822;-43
2022/01/08 14:35:27;;;;;;;;;;;22.60;42.20;;;;;;6286269;28;20737;-42
2022/01/08 14:38:28;;;;;;;;;;;22.60;42.10;;;;;;6267699;28;19935;-43
2022/01/08 14:41:32;;;;;;;;;;;22.70;42.30;;;;;;6284379;28;20892;-40
2022/01/08 14:44:35;;;;;;;;;;;22.30;42.00;;;;;;6285203;28;20345;-41
2022/01/08 14:47:38;;;;;;;;;;;22.30;42.00;;;;;;6279403;28;20050;-40
2022/01/08 14:50:40;;;;;;;;;;;22.30;42.00;;;;;;6275510;28;20191;-41
2022/01/08 14:53:41;;;;;;;;;;;22.30;42.10;;;;;;6282141;28;19935;-43
2022/01/08 14:56:44;;;;;;;;;;;22.50;42.20;;;;;;6278478;28;21009;-40
2022/01/08 14:59:46;;;;;;;;;;;22.40;42.10;;;;;;6270277;28;20058;-43
2022/01/08 15:02:47;;;;;;;;;;;22.20;42.10;;;;;;6271354;28;20528;-41
2022/01/08 15:05:49;;;;;;;;;;;22.80;42.40;;;;;;6286866;28;20359;-41
2022/01/08 15:08:52;;;;;;;;;;;22.20;42.00;;;;;;6289421;28;20552;-41
2022/01/08 15:11:53;;;;;;;;;;;22.30;42.10;;;;;;6283881;28;20049;-40
2022/01/08 15:14:54;;;;;;;;;;;22.40;42.20;;;;;;6286669;28;20481;-40
2022/01/08 15:17:56;;;;;;;;;;;22.70;42.40;;;;;;6279205;28;20748;-41
2022/01/08 15:21:07;;;;;;;;;;;22.40;42.20;;;;;;6280582;28;20050;-41
2022/01/08 15:24:08;;;;;;;;;;;22.30;42.20;;;;;;6284931;28;20043;-40
2022/01/08 15:27:10;;;;;;;;;;;22.20;42.10;;;;;;6283287;28;20482;-40
2022/01/08 15:30:11;;;;;;;;;;;22.40;42.20;;;;;;6282664;28;20099;-41
2022/01/08 15:33:12;;;;;;;;;;;22.90;42.50;;;;;;6283961;28;20061;-40
2022/01/08 15:36:15;;;;;;;;;;;22.60;42.40;;;;;;6287948;28;19923;-41
2022/01/08 15:39:17;;;;;;;;;;;23.00;42.60;;;;;;6285406;28;20180;-41
2022/01/08 15:42:19;;;;;;;;;;;22.80;42.50;;;;;;6288213;28;20250;-42
2022/01/08 15:45:20;;;;;;;;;;;22.30;42.20;;;;;;6283904;28;20074;-41
2022/01/08 15:48:23;;;;;;;;;;;22.80;42.50;;;;;;6279158;28;19923;-40
2022/01/08 15:51:25;;;;;;;;;;;22.30;42.30;;;;;;6279775;28;19935;-41
2022/01/08 15:54:27;;;;;;;;;;;22.60;42.40;;;;;;6283901;28;19923;-41
2022/01/08 15:57:28;;;;;;;;;;;22.60;42.40;;;;;;6279194;28;20251;-42
2022/01/08 16:00:29;;;;;;;;;;;22.40;42.30;;;;;;6278572;28;20402;-40
2022/01/08 16:03:31;;;;;;;;;;;22.80;42.60;;;;;;6279907;28;20387;-43
2022/01/08 16:06:33;;;;;;;;;;;22.30;42.90;;;;;;6283438;28;20228;-40
2022/01/08 16:09:34;;;;;;;;;;;22.90;42.60;;;;;;6288984;28;20497;-42
2022/01/08 16:12:36;;;;;;;;;;;22.60;42.50;;;;;;6290229;28;19931;-41
2022/01/08 16:15:37;;;;;;;;;;;22.90;42.60;;;;;;6277934;28;20640;-40
2022/01/08 16:18:39;;;;;;;;;;;22.30;42.40;;;;;;6274009;28;20418;-42
2022/01/08 16:21:41;;;;;;;;;;;22.70;42.60;;;;;;6279162;28;20370;-41
2022/01/08 16:24:42;;;;;;;;;;;22.50;42.50;;;;;;6282274;28;20456;-41
2022/01/08 16:27:45;;;;;;;;;;;22.90;42.70;;;;;;6285812;28;20406;-42
2022/01/08 16:30:46;;;;;;;;;;;22.40;42.40;;;;;;6276177;28;20204;-40
2022/01/08 16:33:47;;;;;;;;;;;22.70;42.60;;;;;;6282020;28;20001;-41
2022/01/08 16:36:49;;;;;;;;;;;22.30;42.40;;;;;;6280625;28;20203;-40
2022/01/08 16:39:51;;;;;;;;;;;22.30;42.40;;;;;;6280940;28;20076;-40
2022/01/08 16:42:52;;;;;;;;;;;22.80;42.60;;;;;;6263945;28;20038;-42
2022/01/08 16:45:53;;;;;;;;;;;22.60;42.60;;;;;;6279986;28;20013;-40
2022/01/08 16:48:55;;;;;;;;;;;22.30;42.40;;;;;;6273375;28;20260;-41
2022/01/08 16:51:58;;;;;;;;;;;22.30;42.40;;;;;;6285302;28;20122;-41
2022/01/08 16:54:59;;;;;;;;;;;22.40;42.50;;;;;;6287474;28;20050;-41
2022/01/08 16:58:00;;;;;;;;;;;22.50;42.60;;;;;;6281476;28;20908;-43
2022/01/08 17:01:03;;;;;;;;;;;22.50;42.60;;;;;;6265490;28;20379;-40
2022/01/08 17:04:04;;;;;;;;;;;22.50;42.60;;;;;;6256587;28;20247;-43
2022/01/08 17:07:07;;;;;;;;;;;22.40;42.50;;;;;;6285403;28;20197;-41
2022/01/08 17:10:09;;;;;;;;;;;22.40;42.50;;;;;;6275960;28;20432;-40
2022/01/08 17:13:11;;;;;;;;;;;22.80;42.70;;;;;;6283964;28;20284;-41
2022/01/08 17:16:12;;;;;;;;;;;22.40;42.60;;;;;;6277473;28;20438;-41
2022/01/08 17:19:13;;;;;;;;;;;22.40;42.60;;;;;;6279897;28;19966;-40
2022/01/08 17:22:18;;;;;;;;;;;22.40;42.60;;;;;;6273238;28;20600;-40
2022/01/08 17:25:19;;;;;;;;;;;22.30;42.50;;;;;;6275299;28;20022;-40
2022/01/08 17:28:21;;;;;;;;;;;22.70;42.90;;;;;;6274732;27;19935;-41
2022/01/08 17:31:22;;;;;;;;;;;22.30;42.70;;;;;;6275268;28;20025;-41
2022/01/08 17:34:23;;;;;;;;;;;22.30;42.80;;;;;;6277629;28;20941;-41
2022/01/08 17:37:25;;;;;;;;;;;22.10;42.80;;;;;;6283787;28;20195;-40
2022/01/08 17:40:27;;;;;;;;;;;22.40;43.00;;;;;;6273151;28;20514;-42
2022/01/08 17:43:33;;;;;;;;;;;22.40;43.10;;;;;;6277681;28;20159;-40
2022/01/08 17:46:35;;;;;;;;;;;22.00;43.00;;;;;;6272796;28;20295;-40
2022/01/08 17:49:36;;;;;;;;;;;22.20;43.10;;;;;;6282022;28;19923;-42
2022/01/08 17:52:40;;;;;;;;;;;22.40;43.20;;;;;;6272768;28;19934;-43
2022/01/08 17:55:41;;;;;;;;;;;22.20;43.20;;;;;;6276069;28;20066;-40
2022/01/08 17:58:42;;;;;;;;;;;22.10;43.20;;;;;;6276208;28;20371;-41
2022/01/08 18:01:44;;;;;;;;;;;22.00;43.20;;;;;;6274168;28;19923;-40
2022/01/08 18:04:48;;;;;;;;;;;22.30;43.40;;;;;;6275633;28;19999;-41
2022/01/08 18:07:50;;;;;;;;;;;22.00;43.30;;;;;;6280033;28;19934;-41
2022/01/08 18:10:51;;;;;;;;;;;22.00;43.30;;;;;;6276776;28;20231;-40